createdAt,value
2022-09-26T00:00:37.810Z,0
2022-09-26T00:01:54.113Z,0
2022-09-26T00:03:10.405Z,0
2022-09-26T00:04:26.680Z,0
2022-09-26T00:05:42.982Z,0
2022-09-26T00:06:59.278Z,0
2022-09-26T00:08:15.572Z,0
2022-09-26T00:09:31.870Z,0
2022-09-26T00:10:47.174Z,0
2022-09-26T00:12:03.461Z,0
2022-09-26T00:13:19.762Z,0
2022-09-26T00:14:36.049Z,0
2022-09-26T00:15:52.333Z,0
2022-09-26T00:17:08.638Z,0
2022-09-26T00:18:24.939Z,0
2022-09-26T00:19:41.218Z,0
2022-09-26T00:20:57.515Z,0
2022-09-26T00:22:13.802Z,0
2022-09-26T00:23:30.110Z,0
2022-09-26T00:24:46.382Z,0
2022-09-26T00:26:02.689Z,0
2022-09-26T00:27:17.991Z,0
2022-09-26T00:28:34.286Z,0
2022-09-26T00:29:50.579Z,0
2022-09-26T00:31:06.869Z,0
2022-09-26T00:32:23.158Z,0
2022-09-26T00:33:39.469Z,0
2022-09-26T00:34:55.750Z,0
2022-09-26T00:36:12.058Z,0
2022-09-26T00:37:28.330Z,0
2022-09-26T00:38:44.630Z,0
2022-09-26T00:40:00.924Z,0
2022-09-26T00:41:17.209Z,0
2022-09-26T00:42:33.502Z,0
2022-09-26T00:43:48.818Z,0
2022-09-26T00:45:05.118Z,0
2022-09-26T00:46:21.400Z,0
2022-09-26T00:47:37.709Z,0
2022-09-26T00:48:53.989Z,0
2022-09-26T00:50:10.281Z,0
2022-09-26T00:51:26.570Z,0
2022-09-26T00:52:42.867Z,0
2022-09-26T00:53:59.165Z,0
2022-09-26T00:55:15.462Z,0
2022-09-26T00:56:31.762Z,0
2022-09-26T00:57:48.037Z,0
2022-09-26T00:59:04.343Z,0
2022-09-26T01:00:19.637Z,0
2022-09-26T01:01:35.947Z,0
2022-09-26T01:02:52.232Z,0
2022-09-26T01:04:08.532Z,0
2022-09-26T01:05:24.825Z,0
2022-09-26T01:06:41.104Z,0
2022-09-26T01:07:57.404Z,0
2022-09-26T01:09:13.698Z,0
2022-09-26T01:10:29.998Z,0
2022-09-26T01:11:46.280Z,0
2022-09-26T01:13:02.569Z,0
2022-09-26T01:14:18.860Z,0
2022-09-26T01:15:35.154Z,0
2022-09-26T01:16:50.470Z,0
2022-09-26T01:18:06.755Z,0
2022-09-26T01:19:23.061Z,0
2022-09-26T01:20:39.347Z,0
2022-09-26T01:21:55.640Z,0
2022-09-26T01:23:11.938Z,0
2022-09-26T01:24:28.237Z,0
2022-09-26T01:25:44.524Z,0
2022-09-26T01:27:00.814Z,0
2022-09-26T01:28:17.099Z,0
2022-09-26T01:29:33.397Z,0
2022-09-26T01:30:49.699Z,0
2022-09-26T01:32:05.981Z,0
2022-09-26T01:33:21.298Z,0
2022-09-26T01:34:37.589Z,0
2022-09-26T01:35:53.879Z,0
2022-09-26T01:37:10.000Z,0
2022-09-26T01:38:26.478Z,0
2022-09-26T01:39:42.747Z,0
2022-09-26T01:40:59.051Z,0
2022-09-26T01:42:15.332Z,0
2022-09-26T01:43:31.627Z,0
2022-09-26T01:44:47.915Z,0
2022-09-26T01:46:04.221Z,0
2022-09-26T01:47:20.513Z,0
2022-09-26T01:48:36.808Z,0
2022-09-26T01:49:52.102Z,0
2022-09-26T01:51:08.403Z,0
2022-09-26T01:52:24.698Z,0
2022-09-26T01:53:41.000Z,0
2022-09-26T01:54:57.277Z,0
2022-09-26T01:56:12.607Z,0
2022-09-26T01:57:28.884Z,0
2022-09-26T01:58:45.173Z,0
2022-09-26T02:00:01.478Z,0
2022-09-26T02:01:17.762Z,0
2022-09-26T02:02:34.070Z,0
2022-09-26T02:03:50.358Z,0
2022-09-26T02:05:06.637Z,0
2022-09-26T02:06:22.932Z,0
2022-09-26T02:07:39.232Z,0
2022-09-26T02:08:55.531Z,0
2022-09-26T02:10:11.825Z,0
2022-09-26T02:11:28.114Z,0
2022-09-26T02:12:43.422Z,0
2022-09-26T02:13:59.717Z,0
2022-09-26T02:15:16.008Z,0
2022-09-26T02:16:32.300Z,0
2022-09-26T02:17:48.599Z,0
2022-09-26T02:19:04.881Z,0
2022-09-26T02:20:21.187Z,0
2022-09-26T02:21:37.479Z,0
2022-09-26T02:22:53.756Z,0
2022-09-26T02:24:10.064Z,0
2022-09-26T02:25:26.340Z,0
2022-09-26T02:26:42.641Z,0
2022-09-26T02:27:58.924Z,0
2022-09-26T02:29:14.235Z,0
2022-09-26T02:30:30.542Z,0
2022-09-26T02:31:46.825Z,0
2022-09-26T02:33:03.125Z,0
2022-09-26T02:34:19.407Z,0
2022-09-26T02:35:35.707Z,0
2022-09-26T02:36:51.994Z,0
2022-09-26T02:38:08.283Z,0
2022-09-26T02:39:24.582Z,0
2022-09-26T02:40:40.888Z,0
2022-09-26T02:41:57.166Z,0
2022-09-26T02:43:13.452Z,0
2022-09-26T02:44:29.756Z,0
2022-09-26T02:45:45.068Z,0
2022-09-26T02:47:01.358Z,0
2022-09-26T02:48:17.659Z,0
2022-09-26T02:49:33.939Z,0
2022-09-26T02:50:50.243Z,0
2022-09-26T02:52:06.535Z,0
2022-09-26T02:53:22.814Z,0
2022-09-26T02:54:39.114Z,0
2022-09-26T02:55:55.400Z,0
2022-09-26T02:57:11.691Z,0
2022-09-26T02:58:27.996Z,0
2022-09-26T02:59:44.289Z,0
2022-09-26T03:01:00.579Z,0
2022-09-26T03:02:15.888Z,0
2022-09-26T03:03:32.182Z,0
2022-09-26T03:04:48.476Z,0
2022-09-26T03:06:04.757Z,0
2022-09-26T03:07:21.057Z,0
2022-09-26T03:08:37.349Z,0
2022-09-26T03:09:53.648Z,0
2022-09-26T03:11:09.947Z,0
2022-09-26T03:12:26.224Z,0
2022-09-26T03:13:42.516Z,0
2022-09-26T03:14:58.813Z,0
2022-09-26T03:16:15.110Z,0
2022-09-26T03:17:31.407Z,0
2022-09-26T03:18:46.730Z,0
2022-09-26T03:20:03.005Z,0
2022-09-26T03:21:19.301Z,0
2022-09-26T03:22:35.579Z,0
2022-09-26T03:23:51.876Z,0
2022-09-26T03:25:08.175Z,0
2022-09-26T03:26:24.470Z,0
2022-09-26T03:27:40.760Z,0
2022-09-26T03:28:57.045Z,0
2022-09-26T03:30:13.337Z,0
2022-09-26T03:31:29.649Z,0
2022-09-26T03:32:45.923Z,0
2022-09-26T03:34:02.232Z,0
2022-09-26T03:35:17.529Z,0
2022-09-26T03:36:33.831Z,0
2022-09-26T03:37:50.139Z,0
2022-09-26T03:39:06.416Z,0
2022-09-26T03:40:22.698Z,0
2022-09-26T03:41:39.004Z,0
2022-09-26T03:42:55.295Z,0
2022-09-26T03:44:11.578Z,0
2022-09-26T03:45:27.896Z,0
2022-09-26T03:46:44.175Z,0
2022-09-26T03:48:00.460Z,0
2022-09-26T03:49:16.768Z,0
2022-09-26T03:50:33.049Z,0
2022-09-26T03:51:48.355Z,0
2022-09-26T03:53:04.646Z,0
2022-09-26T03:54:20.952Z,0
2022-09-26T03:55:37.235Z,0
2022-09-26T03:56:53.552Z,0
2022-09-26T03:58:09.822Z,0
2022-09-26T03:59:26.118Z,0
2022-09-26T04:00:42.409Z,0
2022-09-26T04:01:58.697Z,0
2022-09-26T04:03:15.002Z,0
2022-09-26T04:04:31.292Z,0
2022-09-26T04:05:47.576Z,0
2022-09-26T04:07:03.872Z,0
2022-09-26T04:08:19.185Z,0
2022-09-26T04:09:35.471Z,0
2022-09-26T04:10:51.783Z,0
2022-09-26T04:12:08.063Z,0
2022-09-26T04:13:24.351Z,0
2022-09-26T04:14:40.656Z,0
2022-09-26T04:15:56.944Z,0
2022-09-26T04:17:13.236Z,0
2022-09-26T04:18:29.539Z,0
2022-09-26T04:19:45.817Z,0
2022-09-26T04:21:02.114Z,0
2022-09-26T04:22:18.415Z,0
2022-09-26T04:23:34.693Z,0
2022-09-26T04:24:50.020Z,0
2022-09-26T04:26:06.294Z,0
2022-09-26T04:27:22.601Z,0
2022-09-26T04:28:38.885Z,0
2022-09-26T04:29:55.182Z,0
2022-09-26T04:31:11.478Z,0
2022-09-26T04:32:27.762Z,0
2022-09-26T04:33:44.070Z,0
2022-09-26T04:35:00.293Z,1
2022-09-26T04:36:16.591Z,0
2022-09-26T04:37:32.909Z,0
2022-09-26T04:38:49.132Z,1
2022-09-26T04:40:05.426Z,0
2022-09-26T04:41:20.747Z,0
2022-09-26T04:42:37.035Z,0
2022-09-26T04:43:53.319Z,0
2022-09-26T04:45:09.564Z,2
2022-09-26T04:46:25.814Z,1
2022-09-26T04:47:42.055Z,4
2022-09-26T04:48:58.299Z,2
2022-09-26T04:50:14.538Z,1
2022-09-26T04:51:30.766Z,2
2022-09-26T04:52:47.001Z,4
2022-09-26T04:54:03.245Z,4
2022-09-26T04:55:19.481Z,4
2022-09-26T04:56:35.724Z,8
2022-09-26T04:57:50.987Z,9
2022-09-26T04:59:07.220Z,9
2022-09-26T05:00:23.448Z,17
2022-09-26T05:01:39.690Z,21
2022-09-26T05:02:55.939Z,23
2022-09-26T05:04:12.179Z,21
2022-09-26T05:05:28.425Z,27
2022-09-26T05:06:44.655Z,31
2022-09-26T05:08:00.894Z,36
2022-09-26T05:09:17.124Z,40
2022-09-26T05:10:33.365Z,44
2022-09-26T05:11:49.610Z,52
2022-09-26T05:13:05.847Z,57
2022-09-26T05:14:21.099Z,60
2022-09-26T05:15:37.343Z,62
2022-09-26T05:16:53.593Z,61
2022-09-26T05:18:09.816Z,65
2022-09-26T05:19:26.060Z,63
2022-09-26T05:20:42.291Z,70
2022-09-26T05:21:58.539Z,77
2022-09-26T05:23:14.775Z,77
2022-09-26T05:24:31.011Z,83
2022-09-26T05:25:47.249Z,91
2022-09-26T05:27:03.502Z,90
2022-09-26T05:28:19.729Z,93
2022-09-26T05:29:35.974Z,96
2022-09-26T05:30:51.224Z,107
2022-09-26T05:32:07.459Z,113
2022-09-26T05:33:23.713Z,122
2022-09-26T05:34:39.952Z,134
2022-09-26T05:35:56.192Z,143
2022-09-26T05:37:12.431Z,156
2022-09-26T05:38:28.662Z,170
2022-09-26T05:39:44.911Z,174
2022-09-26T05:41:01.148Z,181
2022-09-26T05:42:17.384Z,192
2022-09-26T05:43:33.630Z,206
2022-09-26T05:44:49.870Z,216
2022-09-26T05:46:06.103Z,230
2022-09-26T05:47:21.353Z,231
2022-09-26T05:48:37.586Z,234
2022-09-26T05:49:53.844Z,239
2022-09-26T05:51:10.067Z,245
2022-09-26T05:52:26.312Z,253
2022-09-26T05:53:42.542Z,265
2022-09-26T05:54:58.796Z,270
2022-09-26T05:56:15.023Z,248
2022-09-26T05:57:31.267Z,294
2022-09-26T05:58:47.509Z,269
2022-09-26T06:00:03.000Z,325
2022-09-26T06:01:19.991Z,332
2022-09-26T06:02:36.228Z,267
2022-09-26T06:03:51.478Z,305
2022-09-26T06:05:07.719Z,333
2022-09-26T06:06:23.962Z,315
2022-09-26T06:07:40.194Z,328
2022-09-26T06:08:56.433Z,345
2022-09-26T06:10:12.665Z,352
2022-09-26T06:11:27.937Z,334
2022-09-26T06:12:44.175Z,333
2022-09-26T06:14:00.405Z,349
2022-09-26T06:15:16.654Z,354
2022-09-26T06:16:32.901Z,358
2022-09-26T06:17:49.126Z,362
2022-09-26T06:19:05.383Z,363
2022-09-26T06:20:21.608Z,369
2022-09-26T06:21:37.842Z,378
2022-09-26T06:22:54.079Z,374
2022-09-26T06:24:10.330Z,380
2022-09-26T06:25:26.572Z,386
2022-09-26T06:26:42.801Z,385
2022-09-26T06:27:58.061Z,392
2022-09-26T06:29:14.302Z,390
2022-09-26T06:30:30.542Z,396
2022-09-26T06:31:46.772Z,420
2022-09-26T06:33:03.017Z,378
2022-09-26T06:34:19.251Z,398
2022-09-26T06:35:35.494Z,427
2022-09-26T06:36:51.729Z,389
2022-09-26T06:38:07.975Z,398
2022-09-26T06:39:24.225Z,405
2022-09-26T06:40:40.448Z,369
2022-09-26T06:41:56.692Z,376
2022-09-26T06:43:12.938Z,378
2022-09-26T06:44:28.185Z,383
2022-09-26T06:45:44.423Z,424
2022-09-26T06:47:00.676Z,389
2022-09-26T06:48:16.912Z,359
2022-09-26T06:49:33.144Z,365
2022-09-26T06:50:49.395Z,381
2022-09-26T06:52:05.615Z,395
2022-09-26T06:53:21.873Z,396
2022-09-26T06:54:38.105Z,384
2022-09-26T06:55:54.336Z,399
2022-09-26T06:57:10.587Z,411
2022-09-26T06:58:26.828Z,429
2022-09-26T06:59:43.052Z,441
2022-09-26T07:00:58.310Z,447
2022-09-26T07:02:14.551Z,439
2022-09-26T07:03:30.789Z,374
2022-09-26T07:04:47.022Z,435
2022-09-26T07:06:03.280Z,396
2022-09-26T07:07:19.516Z,399
2022-09-26T07:08:35.737Z,410
2022-09-26T07:09:51.984Z,395
2022-09-26T07:11:08.219Z,416
2022-09-26T07:12:24.465Z,420
2022-09-26T07:13:40.697Z,413
2022-09-26T07:14:56.937Z,424
2022-09-26T07:16:13.185Z,418
2022-09-26T07:17:28.445Z,440
2022-09-26T07:18:44.670Z,463
2022-09-26T07:20:00.914Z,393
2022-09-26T07:21:17.160Z,422
2022-09-26T07:22:33.394Z,425
2022-09-26T07:23:49.630Z,424
2022-09-26T07:25:05.879Z,425
2022-09-26T07:26:22.103Z,439
2022-09-26T07:27:38.357Z,436
2022-09-26T07:28:54.583Z,415
2022-09-26T07:30:10.000Z,418
2022-09-26T07:31:27.067Z,423
2022-09-26T07:32:43.300Z,428
2022-09-26T07:33:58.569Z,434
2022-09-26T07:35:14.804Z,444
2022-09-26T07:36:31.036Z,417
2022-09-26T07:37:47.273Z,435
2022-09-26T07:39:03.513Z,442
2022-09-26T07:40:19.758Z,442
2022-09-26T07:41:35.990Z,439
2022-09-26T07:42:52.232Z,444
2022-09-26T07:44:08.464Z,449
2022-09-26T07:45:24.705Z,448
2022-09-26T07:46:40.956Z,447
2022-09-26T07:47:57.188Z,453
2022-09-26T07:49:13.425Z,448
2022-09-26T07:50:28.682Z,455
2022-09-26T07:51:44.910Z,454
2022-09-26T07:53:01.149Z,455
2022-09-26T07:54:17.400Z,451
2022-09-26T07:55:33.627Z,450
2022-09-26T07:56:49.873Z,462
2022-09-26T07:58:06.125Z,453
2022-09-26T07:59:22.360Z,463
2022-09-26T08:00:38.584Z,462
2022-09-26T08:01:54.825Z,463
2022-09-26T08:03:11.076Z,470
2022-09-26T08:04:27.306Z,475
2022-09-26T08:05:43.544Z,469
2022-09-26T08:06:58.804Z,467
2022-09-26T08:08:15.032Z,471
2022-09-26T08:09:31.283Z,474
2022-09-26T08:10:47.514Z,476
2022-09-26T08:12:03.752Z,475
2022-09-26T08:13:19.987Z,482
2022-09-26T08:14:36.241Z,481
2022-09-26T08:15:52.470Z,483
2022-09-26T08:17:08.708Z,480
2022-09-26T08:18:24.950Z,486
2022-09-26T08:19:41.178Z,481
2022-09-26T08:20:57.419Z,499
2022-09-26T08:22:13.670Z,500
2022-09-26T08:23:28.923Z,493
2022-09-26T08:24:45.155Z,497
2022-09-26T08:26:01.394Z,493
2022-09-26T08:27:17.631Z,515
2022-09-26T08:28:33.864Z,503
2022-09-26T08:29:50.107Z,494
2022-09-26T08:31:06.342Z,510
2022-09-26T08:32:22.595Z,508
2022-09-26T08:33:38.823Z,515
2022-09-26T08:34:55.061Z,503
2022-09-26T08:36:11.304Z,523
2022-09-26T08:37:27.537Z,521
2022-09-26T08:38:43.775Z,514
2022-09-26T08:39:59.038Z,524
2022-09-26T08:41:15.277Z,520
2022-09-26T08:42:31.514Z,504
2022-09-26T08:43:47.749Z,527
2022-09-26T08:45:03.987Z,516
2022-09-26T08:46:20.233Z,510
2022-09-26T08:47:36.469Z,520
2022-09-26T08:48:52.701Z,522
2022-09-26T08:50:08.936Z,529
2022-09-26T08:51:25.182Z,534
2022-09-26T08:52:41.432Z,550
2022-09-26T08:53:57.666Z,839
2022-09-26T08:55:13.895Z,630
2022-09-26T08:56:29.147Z,523
2022-09-26T08:57:45.394Z,538
2022-09-26T08:59:01.632Z,488
2022-09-26T09:00:17.866Z,595
2022-09-26T09:01:34.115Z,512
2022-09-26T09:02:50.346Z,530
2022-09-26T09:04:06.583Z,606
2022-09-26T09:05:22.834Z,478
2022-09-26T09:06:39.055Z,527
2022-09-26T09:07:55.306Z,597
2022-09-26T09:09:11.545Z,620
2022-09-26T09:10:27.774Z,558
2022-09-26T09:11:44.013Z,597
2022-09-26T09:12:59.277Z,595
2022-09-26T09:14:15.499Z,588
2022-09-26T09:15:31.740Z,615
2022-09-26T09:16:47.975Z,590
2022-09-26T09:18:04.229Z,570
2022-09-26T09:19:20.463Z,599
2022-09-26T09:20:36.705Z,616
2022-09-26T09:21:52.949Z,632
2022-09-26T09:23:09.181Z,630
2022-09-26T09:24:25.419Z,636
2022-09-26T09:25:41.655Z,637
2022-09-26T09:26:57.884Z,657
2022-09-26T09:28:14.130Z,638
2022-09-26T09:29:29.376Z,650
2022-09-26T09:30:45.627Z,666
2022-09-26T09:32:01.854Z,650
2022-09-26T09:33:18.106Z,640
2022-09-26T09:34:34.329Z,671
2022-09-26T09:35:50.569Z,722
2022-09-26T09:37:06.806Z,692
2022-09-26T09:38:23.060Z,689
2022-09-26T09:39:39.302Z,664
2022-09-26T09:40:55.524Z,672
2022-09-26T09:42:11.775Z,670
2022-09-26T09:43:28.018Z,722
2022-09-26T09:44:44.252Z,738
2022-09-26T09:45:59.507Z,710
2022-09-26T09:47:15.730Z,731
2022-09-26T09:48:31.986Z,613
2022-09-26T09:49:48.220Z,547
2022-09-26T09:51:04.460Z,1373
2022-09-26T09:52:20.687Z,1600
2022-09-26T09:53:36.927Z,1605
2022-09-26T09:54:53.167Z,1682
2022-09-26T09:56:09.404Z,1195
2022-09-26T09:57:25.641Z,1663
2022-09-26T09:58:41.887Z,3085
2022-09-26T09:59:58.129Z,3512
2022-09-26T10:01:14.369Z,3761
2022-09-26T10:02:29.615Z,4141
2022-09-26T10:03:45.860Z,2371
2022-09-26T10:05:02.099Z,3462
2022-09-26T10:06:18.342Z,3611
2022-09-26T10:07:34.574Z,3812
2022-09-26T10:08:50.822Z,3769
2022-09-26T10:10:07.051Z,3766
2022-09-26T10:11:23.286Z,3945
2022-09-26T10:12:39.528Z,4147
2022-09-26T10:13:55.782Z,3954
2022-09-26T10:15:12.018Z,3945
2022-09-26T10:16:28.254Z,4057
2022-09-26T10:17:44.490Z,3941
2022-09-26T10:18:59.741Z,3913
2022-09-26T10:20:15.990Z,5486
2022-09-26T10:21:32.221Z,1694
2022-09-26T10:22:48.473Z,2916
2022-09-26T10:24:04.710Z,4773
2022-09-26T10:25:20.943Z,729
2022-09-26T10:26:36.209Z,4400
2022-09-26T10:27:52.446Z,4280
2022-09-26T10:29:08.686Z,4365
2022-09-26T10:30:24.924Z,4268
2022-09-26T10:31:41.000Z,4149
2022-09-26T10:32:57.398Z,4245
2022-09-26T10:34:13.650Z,4357
2022-09-26T10:35:29.885Z,4557
2022-09-26T10:36:46.121Z,4275
2022-09-26T10:38:02.368Z,4565
2022-09-26T10:39:18.604Z,4727
2022-09-26T10:40:34.853Z,4998
2022-09-26T10:41:51.092Z,4940
2022-09-26T10:43:06.362Z,4938
2022-09-26T10:44:22.585Z,5080
2022-09-26T10:45:38.824Z,4973
2022-09-26T10:46:55.074Z,5274
2022-09-26T10:48:11.302Z,6297
2022-09-26T10:49:27.553Z,1072
2022-09-26T10:50:43.784Z,5665
2022-09-26T10:52:00.022Z,1282
2022-09-26T10:53:16.262Z,1153
2022-09-26T10:54:32.498Z,799
2022-09-26T10:55:48.752Z,924
2022-09-26T10:57:04.996Z,4723
2022-09-26T10:58:21.239Z,4564
2022-09-26T10:59:36.476Z,4540
2022-09-26T11:00:52.733Z,4284
2022-09-26T11:02:08.965Z,4347
2022-09-26T11:03:25.207Z,4477
2022-09-26T11:04:41.437Z,4727
2022-09-26T11:05:57.675Z,4387
2022-09-26T11:07:13.932Z,4607
2022-09-26T11:08:30.173Z,7277
2022-09-26T11:09:46.408Z,1019
2022-09-26T11:11:02.636Z,6019
2022-09-26T11:12:18.897Z,1243
2022-09-26T11:13:35.124Z,7449
2022-09-26T11:14:51.357Z,1683
2022-09-26T11:16:06.623Z,1101
2022-09-26T11:17:22.862Z,5521
2022-09-26T11:18:39.100Z,4998
2022-09-26T11:19:55.337Z,4869
2022-09-26T11:21:11.579Z,4804
2022-09-26T11:22:27.822Z,8560
2022-09-26T11:23:44.073Z,1707
2022-09-26T11:25:00.298Z,5580
2022-09-26T11:26:16.539Z,5597
2022-09-26T11:27:32.780Z,7323
2022-09-26T11:28:49.023Z,8336
2022-09-26T11:30:05.261Z,4052
2022-09-26T11:31:21.506Z,2022
2022-09-26T11:32:36.743Z,1251
2022-09-26T11:33:52.986Z,820
2022-09-26T11:35:09.229Z,1729
2022-09-26T11:36:25.461Z,1568
2022-09-26T11:37:41.707Z,1265
2022-09-26T11:38:57.944Z,1285
2022-09-26T11:40:14.181Z,1432
2022-09-26T11:41:30.432Z,1149
2022-09-26T11:42:46.660Z,771
2022-09-26T11:44:02.913Z,3537
2022-09-26T11:45:19.135Z,877
2022-09-26T11:46:35.384Z,1762
2022-09-26T11:47:51.614Z,9916
2022-09-26T11:49:06.886Z,6439
2022-09-26T11:50:23.115Z,1736
2022-09-26T11:51:39.348Z,1293
2022-09-26T11:52:55.584Z,993
2022-09-26T11:54:11.828Z,998
2022-09-26T11:55:28.066Z,849
2022-09-26T11:56:44.309Z,734
2022-09-26T11:58:00.545Z,667
2022-09-26T11:59:16.790Z,560
2022-09-26T12:00:33.022Z,544
2022-09-26T12:01:49.271Z,520
2022-09-26T12:03:05.502Z,704
2022-09-26T12:04:21.741Z,1141
2022-09-26T12:05:36.992Z,5420
2022-09-26T12:06:53.251Z,934
2022-09-26T12:08:09.475Z,4493
2022-09-26T12:09:25.726Z,1402
2022-09-26T12:10:41.959Z,8858
2022-09-26T12:11:58.190Z,1876
2022-09-26T12:13:14.424Z,1115
2022-09-26T12:14:30.673Z,1029
2022-09-26T12:15:46.912Z,1051
2022-09-26T12:17:03.142Z,953
2022-09-26T12:18:19.381Z,945
2022-09-26T12:19:35.628Z,939
2022-09-26T12:20:51.858Z,908
2022-09-26T12:22:07.128Z,970
2022-09-26T12:23:23.355Z,1027
2022-09-26T12:24:39.598Z,998
2022-09-26T12:25:55.847Z,787
2022-09-26T12:27:12.083Z,3825
2022-09-26T12:28:28.314Z,2305
2022-09-26T12:29:44.584Z,7776
2022-09-26T12:31:00.808Z,7627
2022-09-26T12:32:17.052Z,9742
2022-09-26T12:33:33.288Z,8072
2022-09-26T12:34:49.540Z,8434
2022-09-26T12:36:05.770Z,7872
2022-09-26T12:37:22.011Z,8127
2022-09-26T12:38:37.274Z,7908
2022-09-26T12:39:53.518Z,8094
2022-09-26T12:41:09.747Z,8479
2022-09-26T12:42:25.989Z,7938
2022-09-26T12:43:42.231Z,7789
2022-09-26T12:44:58.482Z,7846
2022-09-26T12:46:14.706Z,8078
2022-09-26T12:47:30.947Z,8259
2022-09-26T12:48:47.192Z,8048
2022-09-26T12:50:03.432Z,8571
2022-09-26T12:51:19.677Z,8624
2022-09-26T12:52:35.899Z,8153
2022-09-26T12:53:52.150Z,8329
2022-09-26T12:55:07.404Z,8477
2022-09-26T12:56:23.638Z,10402
2022-09-26T12:57:39.882Z,3204
2022-09-26T12:58:56.127Z,1334
2022-09-26T13:00:12.369Z,1634
2022-09-26T13:01:28.609Z,1178
2022-09-26T13:02:44.833Z,568
2022-09-26T13:04:01.093Z,1915
2022-09-26T13:05:17.329Z,1106
2022-09-26T13:06:33.572Z,816
2022-09-26T13:07:49.802Z,928
2022-09-26T13:09:06.053Z,913
2022-09-26T13:10:22.277Z,6762
2022-09-26T13:11:37.558Z,8434
2022-09-26T13:12:53.787Z,8935
2022-09-26T13:14:10.032Z,8777
2022-09-26T13:15:26.261Z,8254
2022-09-26T13:16:42.499Z,8119
2022-09-26T13:17:58.757Z,8027
2022-09-26T13:19:14.990Z,8183
2022-09-26T13:20:31.233Z,9023
2022-09-26T13:21:47.477Z,7156
2022-09-26T13:23:03.704Z,8287
2022-09-26T13:24:19.953Z,8551
2022-09-26T13:25:36.188Z,8642
2022-09-26T13:26:52.438Z,8618
2022-09-26T13:28:08.667Z,8525
2022-09-26T13:29:23.935Z,8314
2022-09-26T13:30:40.155Z,8105
2022-09-26T13:31:56.395Z,9730
2022-09-26T13:33:12.638Z,10907
2022-09-26T13:34:28.875Z,1792
2022-09-26T13:35:45.123Z,11922
2022-09-26T13:37:01.368Z,1866
2022-09-26T13:38:17.599Z,10472
2022-09-26T13:39:33.852Z,1326
2022-09-26T13:40:50.094Z,8552
2022-09-26T13:42:06.328Z,8398
2022-09-26T13:43:22.573Z,8937
2022-09-26T13:44:38.810Z,8802
2022-09-26T13:45:54.072Z,8370
2022-09-26T13:47:10.312Z,11314
2022-09-26T13:48:26.561Z,1031
2022-09-26T13:49:42.794Z,4695
2022-09-26T13:50:59.047Z,8194
2022-09-26T13:52:15.287Z,7881
2022-09-26T13:53:31.518Z,8182
2022-09-26T13:54:47.754Z,12197
2022-09-26T13:56:04.003Z,1988
2022-09-26T13:57:20.235Z,8096
2022-09-26T13:58:36.490Z,13153
2022-09-26T13:59:52.715Z,9415
2022-09-26T14:01:08.958Z,4284
2022-09-26T14:02:24.227Z,2141
2022-09-26T14:03:40.455Z,1685
2022-09-26T14:04:56.711Z,1521
2022-09-26T14:06:12.930Z,1359
2022-09-26T14:07:29.169Z,1399
2022-09-26T14:08:45.438Z,1267
2022-09-26T14:10:01.650Z,1146
2022-09-26T14:11:17.898Z,990
2022-09-26T14:12:34.132Z,1011
2022-09-26T14:13:50.375Z,1091
2022-09-26T14:15:06.624Z,1080
2022-09-26T14:16:22.877Z,1007
2022-09-26T14:17:39.109Z,946
2022-09-26T14:18:54.348Z,750
2022-09-26T14:20:10.600Z,617
2022-09-26T14:21:26.838Z,687
2022-09-26T14:22:43.065Z,2499
2022-09-26T14:23:59.311Z,2093
2022-09-26T14:25:15.564Z,1543
2022-09-26T14:26:31.800Z,865
2022-09-26T14:27:48.033Z,5257
2022-09-26T14:29:04.278Z,907
2022-09-26T14:30:20.511Z,1255
2022-09-26T14:31:36.765Z,6039
2022-09-26T14:32:52.995Z,2863
2022-09-26T14:34:09.232Z,3419
2022-09-26T14:35:24.488Z,1496
2022-09-26T14:36:40.746Z,1167
2022-09-26T14:37:56.973Z,1014
2022-09-26T14:39:13.230Z,5090
2022-09-26T14:40:29.465Z,4677
2022-09-26T14:41:45.685Z,6034
2022-09-26T14:43:00.967Z,7495
2022-09-26T14:44:17.186Z,1668
2022-09-26T14:45:33.443Z,1805
2022-09-26T14:46:49.673Z,1121
2022-09-26T14:48:05.908Z,760
2022-09-26T14:49:22.146Z,924
2022-09-26T14:50:38.389Z,710
2022-09-26T14:51:54.628Z,3999
2022-09-26T14:53:10.878Z,916
2022-09-26T14:54:27.119Z,1476
2022-09-26T14:55:43.361Z,5599
2022-09-26T14:56:59.596Z,4087
2022-09-26T14:58:15.826Z,817
2022-09-26T14:59:31.095Z,3506
2022-09-26T15:00:47.320Z,3223
2022-09-26T15:02:03.573Z,2681
2022-09-26T15:03:19.800Z,1193
2022-09-26T15:04:36.050Z,838
2022-09-26T15:05:52.293Z,522
2022-09-26T15:07:08.529Z,3689
2022-09-26T15:08:24.765Z,2653
2022-09-26T15:09:40.997Z,2174
2022-09-26T15:10:57.256Z,905
2022-09-26T15:12:13.469Z,829
2022-09-26T15:13:29.707Z,809
2022-09-26T15:14:45.966Z,653
2022-09-26T15:16:01.218Z,487
2022-09-26T15:17:17.440Z,544
2022-09-26T15:18:33.691Z,3747
2022-09-26T15:19:49.953Z,4959
2022-09-26T15:21:06.170Z,5090
2022-09-26T15:22:22.426Z,4987
2022-09-26T15:23:38.667Z,7372
2022-09-26T15:24:54.917Z,5303
2022-09-26T15:26:11.138Z,5741
2022-09-26T15:27:27.370Z,3104
2022-09-26T15:28:43.621Z,1959
2022-09-26T15:29:59.846Z,3306
2022-09-26T15:31:16.086Z,3540
2022-09-26T15:32:31.345Z,2576
2022-09-26T15:33:47.609Z,2057
2022-09-26T15:35:03.835Z,2452
2022-09-26T15:36:20.061Z,2059
2022-09-26T15:37:36.303Z,2044
2022-09-26T15:38:52.542Z,1895
2022-09-26T15:40:08.792Z,1522
2022-09-26T15:41:25.022Z,1427
2022-09-26T15:42:41.271Z,1683
2022-09-26T15:43:57.506Z,1534
2022-09-26T15:45:13.733Z,1324
2022-09-26T15:46:29.988Z,1210
2022-09-26T15:47:46.223Z,1224
2022-09-26T15:49:01.476Z,1134
2022-09-26T15:50:17.708Z,1060
2022-09-26T15:51:33.962Z,927
2022-09-26T15:52:50.208Z,924
2022-09-26T15:54:06.419Z,963
2022-09-26T15:55:22.680Z,712
2022-09-26T15:56:38.912Z,716
2022-09-26T15:57:55.155Z,727
2022-09-26T15:59:11.396Z,744
2022-09-26T16:00:27.626Z,710
2022-09-26T16:01:43.857Z,633
2022-09-26T16:03:00.112Z,628
2022-09-26T16:04:16.342Z,582
2022-09-26T16:05:31.604Z,553
2022-09-26T16:06:47.844Z,521
2022-09-26T16:08:04.069Z,500
2022-09-26T16:09:20.307Z,484
2022-09-26T16:10:36.554Z,464
2022-09-26T16:11:52.803Z,442
2022-09-26T16:13:09.034Z,430
2022-09-26T16:14:25.265Z,402
2022-09-26T16:15:41.496Z,383
2022-09-26T16:16:57.756Z,365
2022-09-26T16:18:13.977Z,350
2022-09-26T16:19:30.217Z,326
2022-09-26T16:20:46.454Z,310
2022-09-26T16:22:01.727Z,296
2022-09-26T16:23:17.960Z,283
2022-09-26T16:24:34.202Z,274
2022-09-26T16:25:50.439Z,260
2022-09-26T16:27:06.669Z,243
2022-09-26T16:28:22.916Z,233
2022-09-26T16:29:39.143Z,226
2022-09-26T16:30:55.394Z,210
2022-09-26T16:32:11.626Z,201
2022-09-26T16:33:27.854Z,191
2022-09-26T16:34:44.112Z,185
2022-09-26T16:36:00.339Z,177
2022-09-26T16:37:16.589Z,170
2022-09-26T16:38:31.839Z,157
2022-09-26T16:39:48.062Z,142
2022-09-26T16:41:04.305Z,128
2022-09-26T16:42:20.539Z,116
2022-09-26T16:43:36.789Z,105
2022-09-26T16:44:53.033Z,95
2022-09-26T16:46:09.257Z,96
2022-09-26T16:47:25.510Z,91
2022-09-26T16:48:41.747Z,90
2022-09-26T16:49:57.989Z,79
2022-09-26T16:51:14.245Z,77
2022-09-26T16:52:30.469Z,73
2022-09-26T16:53:46.690Z,68
2022-09-26T16:55:01.951Z,62
2022-09-26T16:56:18.209Z,55
2022-09-26T16:57:34.422Z,48
2022-09-26T16:58:50.683Z,46
2022-09-26T17:00:06.905Z,38
2022-09-26T17:01:23.164Z,37
2022-09-26T17:02:39.372Z,36
2022-09-26T17:03:55.631Z,31
2022-09-26T17:05:11.864Z,22
2022-09-26T17:06:28.099Z,22
2022-09-26T17:07:44.333Z,22
2022-09-26T17:09:00.596Z,18
2022-09-26T17:10:16.823Z,12
2022-09-26T17:11:32.058Z,11
2022-09-26T17:12:48.319Z,9
2022-09-26T17:14:04.555Z,6
2022-09-26T17:15:20.785Z,8
2022-09-26T17:16:37.027Z,6
2022-09-26T17:17:53.268Z,2
2022-09-26T17:19:09.498Z,3
2022-09-26T17:20:25.726Z,6
2022-09-26T17:21:41.994Z,1
2022-09-26T17:22:58.219Z,2
2022-09-26T17:24:14.440Z,2
2022-09-26T17:25:30.686Z,1
2022-09-26T17:26:46.925Z,1
2022-09-26T17:28:02.190Z,1
2022-09-26T17:29:18.488Z,0
2022-09-26T17:30:34.763Z,0
2022-09-26T17:31:51.083Z,0
2022-09-26T17:33:07.368Z,0
2022-09-26T17:34:23.654Z,0
2022-09-26T17:35:39.943Z,0
2022-09-26T17:36:56.227Z,0
2022-09-26T17:38:12.514Z,0
2022-09-26T17:39:28.808Z,0
2022-09-26T17:40:45.114Z,0
2022-09-26T17:42:01.405Z,0
2022-09-26T17:43:17.710Z,0